sensor_id;sensor_type;location;lat;lon;timestamp;P1;durP1;ratioP1;P2;durP2;ratioP2
7501;SDS011;3792;47.740;7.606;2023-02-12T00:01:15;32.83;;;18.10;;
7501;SDS011;3792;47.740;7.606;2023-02-12T00:03:42;29.73;;;17.77;;
7501;SDS011;3792;47.740;7.606;2023-02-12T00:06:09;28.00;;;16.57;;
7501;SDS011;3792;47.740;7.606;2023-02-12T00:08:37;28.73;;;16.43;;
7501;SDS011;3792;47.740;7.606;2023-02-12T00:11:10;30.17;;;17.63;;
7501;SDS011;3792;47.740;7.606;2023-02-12T00:13:38;34.23;;;17.57;;
7501;SDS011;3792;47.740;7.606;2023-02-12T00:16:06;32.40;;;18.50;;
7501;SDS011;3792;47.740;7.606;2023-02-12T00:18:35;33.10;;;18.33;;
7501;SDS011;3792;47.740;7.606;2023-02-12T00:21:02;35.43;;;18.93;;
7501;SDS011;3792;47.740;7.606;2023-02-12T00:23:30;28.13;;;18.73;;
7501;SDS011;3792;47.740;7.606;2023-02-12T00:25:57;37.40;;;22.47;;
7501;SDS011;3792;47.740;7.606;2023-02-12T00:28:25;41.37;;;25.00;;
7501;SDS011;3792;47.740;7.606;2023-02-12T00:30:52;40.37;;;23.13;;
7501;SDS011;3792;47.740;7.606;2023-02-12T00:33:19;44.90;;;23.33;;
7501;SDS011;3792;47.740;7.606;2023-02-12T00:35:53;30.77;;;18.40;;
7501;SDS011;3792;47.740;7.606;2023-02-12T00:38:21;28.07;;;16.10;;
7501;SDS011;3792;47.740;7.606;2023-02-12T00:40:48;27.60;;;17.03;;
7501;SDS011;3792;47.740;7.606;2023-02-12T00:43:15;27.87;;;16.60;;
7501;SDS011;3792;47.740;7.606;2023-02-12T00:45:44;29.17;;;16.00;;
7501;SDS011;3792;47.740;7.606;2023-02-12T00:48:12;27.93;;;16.37;;
7501;SDS011;3792;47.740;7.606;2023-02-12T00:50:39;31.17;;;16.63;;
7501;SDS011;3792;47.740;7.606;2023-02-12T00:53:06;28.50;;;16.03;;
7501;SDS011;3792;47.740;7.606;2023-02-12T00:55:33;29.47;;;16.20;;
7501;SDS011;3792;47.740;7.606;2023-02-12T00:58:00;27.07;;;15.73;;
7501;SDS011;3792;47.740;7.606;2023-02-12T01:00:27;28.97;;;16.33;;
7501;SDS011;3792;47.740;7.606;2023-02-12T01:02:56;27.47;;;15.97;;
7501;SDS011;3792;47.740;7.606;2023-02-12T01:05:23;28.17;;;15.60;;
7501;SDS011;3792;47.740;7.606;2023-02-12T01:07:50;26.57;;;15.63;;
7501;SDS011;3792;47.740;7.606;2023-02-12T01:10:19;27.07;;;14.80;;
7501;SDS011;3792;47.740;7.606;2023-02-12T01:12:46;26.07;;;17.13;;
7501;SDS011;3792;47.740;7.606;2023-02-12T01:15:14;24.90;;;14.87;;
7501;SDS011;3792;47.740;7.606;2023-02-12T01:17:41;26.67;;;16.10;;
7501;SDS011;3792;47.740;7.606;2023-02-12T01:20:11;29.23;;;16.63;;
7501;SDS011;3792;47.740;7.606;2023-02-12T01:22:41;30.13;;;16.20;;
7501;SDS011;3792;47.740;7.606;2023-02-12T01:25:09;26.43;;;15.80;;
7501;SDS011;3792;47.740;7.606;2023-02-12T01:27:36;28.43;;;16.47;;
7501;SDS011;3792;47.740;7.606;2023-02-12T01:30:04;29.70;;;17.20;;
7501;SDS011;3792;47.740;7.606;2023-02-12T01:32:33;28.47;;;16.17;;
7501;SDS011;3792;47.740;7.606;2023-02-12T01:35:00;28.30;;;16.17;;
7501;SDS011;3792;47.740;7.606;2023-02-12T01:37:29;29.43;;;16.57;;
7501;SDS011;3792;47.740;7.606;2023-02-12T01:39:56;27.50;;;15.83;;
7501;SDS011;3792;47.740;7.606;2023-02-12T01:42:23;28.40;;;15.97;;
7501;SDS011;3792;47.740;7.606;2023-02-12T01:45:17;23.50;;;15.37;;
7501;SDS011;3792;47.740;7.606;2023-02-12T01:48:10;21.83;;;14.33;;
7501;SDS011;3792;47.740;7.606;2023-02-12T01:50:38;25.37;;;15.33;;
7501;SDS011;3792;47.740;7.606;2023-02-12T01:53:09;26.20;;;15.93;;
7501;SDS011;3792;47.740;7.606;2023-02-12T01:55:43;26.83;;;15.87;;
7501;SDS011;3792;47.740;7.606;2023-02-12T01:58:12;30.37;;;16.03;;
7501;SDS011;3792;47.740;7.606;2023-02-12T02:00:40;27.03;;;15.83;;
7501;SDS011;3792;47.740;7.606;2023-02-12T02:03:07;25.20;;;14.93;;
7501;SDS011;3792;47.740;7.606;2023-02-12T02:05:36;27.37;;;15.90;;
7501;SDS011;3792;47.740;7.606;2023-02-12T02:08:10;26.70;;;14.70;;
7501;SDS011;3792;47.740;7.606;2023-02-12T02:10:38;23.80;;;14.67;;
7501;SDS011;3792;47.740;7.606;2023-02-12T02:13:05;29.43;;;15.20;;
7501;SDS011;3792;47.740;7.606;2023-02-12T02:15:51;25.00;;;15.00;;
7501;SDS011;3792;47.740;7.606;2023-02-12T02:18:26;25.90;;;15.50;;
7501;SDS011;3792;47.740;7.606;2023-02-12T02:24:15;23.70;;;14.90;;
7501;SDS011;3792;47.740;7.606;2023-02-12T02:27:34;24.03;;;15.03;;
7501;SDS011;3792;47.740;7.606;2023-02-12T02:30:17;27.37;;;13.77;;
7501;SDS011;3792;47.740;7.606;2023-02-12T02:32:55;25.70;;;15.23;;
7501;SDS011;3792;47.740;7.606;2023-02-12T02:35:29;27.37;;;14.57;;
7501;SDS011;3792;47.740;7.606;2023-02-12T02:38:05;22.43;;;13.87;;
7501;SDS011;3792;47.740;7.606;2023-02-12T02:40:50;23.47;;;14.77;;
7501;SDS011;3792;47.740;7.606;2023-02-12T02:43:25;23.73;;;14.33;;
7501;SDS011;3792;47.740;7.606;2023-02-12T02:45:56;22.43;;;13.50;;
7501;SDS011;3792;47.740;7.606;2023-02-12T02:48:28;25.37;;;14.63;;
7501;SDS011;3792;47.740;7.606;2023-02-12T02:51:00;24.67;;;14.43;;
7501;SDS011;3792;47.740;7.606;2023-02-12T02:53:32;25.63;;;14.70;;
7501;SDS011;3792;47.740;7.606;2023-02-12T02:56:05;21.77;;;13.80;;
7501;SDS011;3792;47.740;7.606;2023-02-12T02:58:34;23.53;;;14.10;;
7501;SDS011;3792;47.740;7.606;2023-02-12T03:01:08;22.03;;;12.57;;
7501;SDS011;3792;47.740;7.606;2023-02-12T03:03:39;26.53;;;14.03;;
7501;SDS011;3792;47.740;7.606;2023-02-12T03:06:12;25.70;;;13.27;;
7501;SDS011;3792;47.740;7.606;2023-02-12T03:08:51;23.80;;;13.23;;
7501;SDS011;3792;47.740;7.606;2023-02-12T03:11:23;22.77;;;13.87;;
7501;SDS011;3792;47.740;7.606;2023-02-12T03:13:54;20.60;;;13.07;;
7501;SDS011;3792;47.740;7.606;2023-02-12T03:16:28;21.13;;;13.77;;
7501;SDS011;3792;47.740;7.606;2023-02-12T03:19:00;21.07;;;12.97;;
7501;SDS011;3792;47.740;7.606;2023-02-12T03:21:36;22.63;;;13.27;;
7501;SDS011;3792;47.740;7.606;2023-02-12T03:24:10;21.50;;;13.07;;
7501;SDS011;3792;47.740;7.606;2023-02-12T03:26:40;25.07;;;12.87;;
7501;SDS011;3792;47.740;7.606;2023-02-12T03:29:10;20.17;;;13.33;;
7501;SDS011;3792;47.740;7.606;2023-02-12T03:31:43;18.50;;;12.30;;
7501;SDS011;3792;47.740;7.606;2023-02-12T03:34:23;21.97;;;12.97;;
7501;SDS011;3792;47.740;7.606;2023-02-12T03:36:56;23.37;;;13.03;;
7501;SDS011;3792;47.740;7.606;2023-02-12T03:39:29;20.33;;;12.10;;
7501;SDS011;3792;47.740;7.606;2023-02-12T03:42:00;19.57;;;12.43;;
7501;SDS011;3792;47.740;7.606;2023-02-12T03:44:35;19.93;;;12.47;;
7501;SDS011;3792;47.740;7.606;2023-02-12T03:47:21;26.87;;;14.50;;
7501;SDS011;3792;47.740;7.606;2023-02-12T03:49:52;22.70;;;11.70;;
7501;SDS011;3792;47.740;7.606;2023-02-12T03:52:26;21.17;;;11.33;;
7501;SDS011;3792;47.740;7.606;2023-02-12T03:54:54;20.20;;;12.60;;
7501;SDS011;3792;47.740;7.606;2023-02-12T03:57:23;23.90;;;13.53;;
7501;SDS011;3792;47.740;7.606;2023-02-12T03:59:55;21.73;;;12.33;;
7501;SDS011;3792;47.740;7.606;2023-02-12T04:02:24;22.87;;;13.23;;
7501;SDS011;3792;47.740;7.606;2023-02-12T04:04:52;21.87;;;13.90;;
7501;SDS011;3792;47.740;7.606;2023-02-12T04:07:19;20.13;;;12.93;;
7501;SDS011;3792;47.740;7.606;2023-02-12T04:09:46;20.07;;;12.27;;
7501;SDS011;3792;47.740;7.606;2023-02-12T04:15:09;21.03;;;12.60;;
7501;SDS011;3792;47.740;7.606;2023-02-12T04:18:00;21.07;;;13.50;;
7501;SDS011;3792;47.740;7.606;2023-02-12T04:20:35;21.10;;;12.73;;
7501;SDS011;3792;47.740;7.606;2023-02-12T04:23:16;18.70;;;13.00;;
7501;SDS011;3792;47.740;7.606;2023-02-12T04:25:53;20.17;;;12.17;;
7501;SDS011;3792;47.740;7.606;2023-02-12T04:28:31;16.90;;;11.73;;
7501;SDS011;3792;47.740;7.606;2023-02-12T04:31:06;23.03;;;12.10;;
7501;SDS011;3792;47.740;7.606;2023-02-12T04:33:41;18.47;;;12.10;;
7501;SDS011;3792;47.740;7.606;2023-02-12T04:36:19;16.80;;;11.43;;
7501;SDS011;3792;47.740;7.606;2023-02-12T04:38:50;22.17;;;12.20;;
7501;SDS011;3792;47.740;7.606;2023-02-12T04:41:20;21.50;;;12.60;;
7501;SDS011;3792;47.740;7.606;2023-02-12T04:43:47;18.23;;;12.23;;
7501;SDS011;3792;47.740;7.606;2023-02-12T04:46:15;21.57;;;12.03;;
7501;SDS011;3792;47.740;7.606;2023-02-12T04:48:46;20.50;;;12.03;;
7501;SDS011;3792;47.740;7.606;2023-02-12T04:51:17;21.23;;;11.73;;
7501;SDS011;3792;47.740;7.606;2023-02-12T04:53:44;18.30;;;11.87;;
7501;SDS011;3792;47.740;7.606;2023-02-12T04:56:12;23.13;;;11.77;;
7501;SDS011;3792;47.740;7.606;2023-02-12T04:58:39;18.67;;;11.50;;
7501;SDS011;3792;47.740;7.606;2023-02-12T05:01:06;22.07;;;12.13;;
7501;SDS011;3792;47.740;7.606;2023-02-12T05:03:34;17.33;;;11.00;;
7501;SDS011;3792;47.740;7.606;2023-02-12T05:06:03;17.77;;;11.27;;
7501;SDS011;3792;47.740;7.606;2023-02-12T05:08:31;20.73;;;12.90;;
7501;SDS011;3792;47.740;7.606;2023-02-12T05:11:02;20.77;;;12.20;;
7501;SDS011;3792;47.740;7.606;2023-02-12T05:13:30;22.50;;;12.53;;
7501;SDS011;3792;47.740;7.606;2023-02-12T05:15:57;19.47;;;12.57;;
7501;SDS011;3792;47.740;7.606;2023-02-12T05:18:24;29.63;;;13.63;;
7501;SDS011;3792;47.740;7.606;2023-02-12T05:20:55;23.53;;;14.63;;
7501;SDS011;3792;47.740;7.606;2023-02-12T05:23:26;24.63;;;14.67;;
7501;SDS011;3792;47.740;7.606;2023-02-12T05:25:53;25.03;;;14.23;;
7501;SDS011;3792;47.740;7.606;2023-02-12T05:28:23;24.33;;;13.07;;
7501;SDS011;3792;47.740;7.606;2023-02-12T05:30:50;22.77;;;14.33;;
7501;SDS011;3792;47.740;7.606;2023-02-12T05:33:17;22.23;;;13.57;;
7501;SDS011;3792;47.740;7.606;2023-02-12T05:35:44;22.17;;;13.17;;
7501;SDS011;3792;47.740;7.606;2023-02-12T05:38:11;23.17;;;13.60;;
7501;SDS011;3792;47.740;7.606;2023-02-12T05:40:40;24.47;;;13.57;;
7501;SDS011;3792;47.740;7.606;2023-02-12T05:43:07;23.03;;;13.57;;
7501;SDS011;3792;47.740;7.606;2023-02-12T05:45:34;18.53;;;12.47;;
7501;SDS011;3792;47.740;7.606;2023-02-12T05:48:02;21.93;;;13.07;;
7501;SDS011;3792;47.740;7.606;2023-02-12T05:50:29;24.50;;;13.13;;
7501;SDS011;3792;47.740;7.606;2023-02-12T05:52:58;23.93;;;13.73;;
7501;SDS011;3792;47.740;7.606;2023-02-12T05:55:25;19.67;;;12.33;;
7501;SDS011;3792;47.740;7.606;2023-02-12T05:57:54;19.50;;;12.93;;
7501;SDS011;3792;47.740;7.606;2023-02-12T06:00:21;21.03;;;13.27;;
7501;SDS011;3792;47.740;7.606;2023-02-12T06:02:48;22.40;;;13.87;;
7501;SDS011;3792;47.740;7.606;2023-02-12T06:05:16;24.60;;;16.30;;
7501;SDS011;3792;47.740;7.606;2023-02-12T06:07:43;24.87;;;14.80;;
7501;SDS011;3792;47.740;7.606;2023-02-12T06:10:10;25.17;;;15.23;;
7501;SDS011;3792;47.740;7.606;2023-02-12T06:12:37;27.97;;;14.83;;
7501;SDS011;3792;47.740;7.606;2023-02-12T06:15:06;25.03;;;14.80;;
7501;SDS011;3792;47.740;7.606;2023-02-12T06:17:33;25.27;;;14.20;;
7501;SDS011;3792;47.740;7.606;2023-02-12T06:20:00;22.33;;;13.63;;
7501;SDS011;3792;47.740;7.606;2023-02-12T06:22:28;23.53;;;14.30;;
7501;SDS011;3792;47.740;7.606;2023-02-12T06:24:55;25.87;;;14.27;;
7501;SDS011;3792;47.740;7.606;2023-02-12T06:27:22;24.37;;;14.57;;
7501;SDS011;3792;47.740;7.606;2023-02-12T06:29:49;22.63;;;13.63;;
7501;SDS011;3792;47.740;7.606;2023-02-12T06:32:17;22.00;;;13.83;;
7501;SDS011;3792;47.740;7.606;2023-02-12T06:34:44;23.30;;;13.03;;
7501;SDS011;3792;47.740;7.606;2023-02-12T06:39:54;20.87;;;13.10;;
7501;SDS011;3792;47.740;7.606;2023-02-12T06:42:21;21.13;;;13.50;;
7501;SDS011;3792;47.740;7.606;2023-02-12T06:44:48;20.67;;;13.20;;
7501;SDS011;3792;47.740;7.606;2023-02-12T06:47:15;25.13;;;15.00;;
7501;SDS011;3792;47.740;7.606;2023-02-12T06:49:42;22.30;;;13.93;;
7501;SDS011;3792;47.740;7.606;2023-02-12T06:52:09;21.87;;;13.60;;
7501;SDS011;3792;47.740;7.606;2023-02-12T06:54:38;24.20;;;14.80;;
7501;SDS011;3792;47.740;7.606;2023-02-12T06:57:06;25.63;;;14.87;;
7501;SDS011;3792;47.740;7.606;2023-02-12T06:59:34;24.50;;;15.17;;
7501;SDS011;3792;47.740;7.606;2023-02-12T07:02:01;30.57;;;17.20;;
7501;SDS011;3792;47.740;7.606;2023-02-12T07:04:28;25.83;;;16.03;;
7501;SDS011;3792;47.740;7.606;2023-02-12T07:06:55;23.27;;;14.43;;
7501;SDS011;3792;47.740;7.606;2023-02-12T07:09:22;32.23;;;17.60;;
7501;SDS011;3792;47.740;7.606;2023-02-12T07:11:49;27.53;;;16.50;;
7501;SDS011;3792;47.740;7.606;2023-02-12T07:14:17;31.20;;;16.83;;
7501;SDS011;3792;47.740;7.606;2023-02-12T07:16:44;30.27;;;16.83;;
7501;SDS011;3792;47.740;7.606;2023-02-12T07:19:12;29.27;;;16.73;;
7501;SDS011;3792;47.740;7.606;2023-02-12T07:21:40;30.60;;;16.47;;
7501;SDS011;3792;47.740;7.606;2023-02-12T07:24:08;26.13;;;16.00;;
7501;SDS011;3792;47.740;7.606;2023-02-12T07:26:37;32.00;;;18.90;;
7501;SDS011;3792;47.740;7.606;2023-02-12T07:29:04;29.23;;;16.53;;
7501;SDS011;3792;47.740;7.606;2023-02-12T07:31:33;26.80;;;15.40;;
7501;SDS011;3792;47.740;7.606;2023-02-12T07:34:00;35.10;;;18.20;;
7501;SDS011;3792;47.740;7.606;2023-02-12T07:36:27;73.47;;;36.23;;
7501;SDS011;3792;47.740;7.606;2023-02-12T07:38:56;68.50;;;35.53;;
7501;SDS011;3792;47.740;7.606;2023-02-12T07:41:26;68.10;;;36.63;;
7501;SDS011;3792;47.740;7.606;2023-02-12T07:43:55;65.73;;;36.50;;
7501;SDS011;3792;47.740;7.606;2023-02-12T07:46:23;71.47;;;40.00;;
7501;SDS011;3792;47.740;7.606;2023-02-12T07:48:55;68.67;;;38.40;;
7501;SDS011;3792;47.740;7.606;2023-02-12T07:51:24;56.00;;;34.50;;
7501;SDS011;3792;47.740;7.606;2023-02-12T07:53:52;63.83;;;36.90;;
7501;SDS011;3792;47.740;7.606;2023-02-12T07:56:20;44.70;;;28.77;;
7501;SDS011;3792;47.740;7.606;2023-02-12T07:58:49;41.83;;;25.97;;
7501;SDS011;3792;47.740;7.606;2023-02-12T08:01:18;42.33;;;25.93;;
7501;SDS011;3792;47.740;7.606;2023-02-12T08:03:47;39.53;;;23.80;;
7501;SDS011;3792;47.740;7.606;2023-02-12T08:06:17;37.80;;;22.70;;
7501;SDS011;3792;47.740;7.606;2023-02-12T08:08:47;35.67;;;22.07;;
7501;SDS011;3792;47.740;7.606;2023-02-12T08:11:16;38.07;;;22.40;;
7501;SDS011;3792;47.740;7.606;2023-02-12T08:13:43;40.93;;;24.50;;
7501;SDS011;3792;47.740;7.606;2023-02-12T08:16:12;40.70;;;27.40;;
7501;SDS011;3792;47.740;7.606;2023-02-12T08:18:41;41.93;;;26.67;;
7501;SDS011;3792;47.740;7.606;2023-02-12T08:21:09;42.70;;;28.00;;
7501;SDS011;3792;47.740;7.606;2023-02-12T08:23:39;43.83;;;29.03;;
7501;SDS011;3792;47.740;7.606;2023-02-12T08:26:07;59.03;;;40.07;;
7501;SDS011;3792;47.740;7.606;2023-02-12T08:28:36;52.37;;;38.47;;
7501;SDS011;3792;47.740;7.606;2023-02-12T08:31:06;53.37;;;37.17;;
7501;SDS011;3792;47.740;7.606;2023-02-12T08:33:37;51.23;;;34.83;;
7501;SDS011;3792;47.740;7.606;2023-02-12T08:36:04;64.43;;;38.97;;
7501;SDS011;3792;47.740;7.606;2023-02-12T08:38:33;60.97;;;37.90;;
7501;SDS011;3792;47.740;7.606;2023-02-12T08:41:04;55.00;;;36.80;;
7501;SDS011;3792;47.740;7.606;2023-02-12T08:43:32;51.77;;;35.87;;
7501;SDS011;3792;47.740;7.606;2023-02-12T08:46:02;55.13;;;38.53;;
7501;SDS011;3792;47.740;7.606;2023-02-12T08:48:30;51.47;;;36.40;;
7501;SDS011;3792;47.740;7.606;2023-02-12T08:51:02;55.33;;;36.00;;
7501;SDS011;3792;47.740;7.606;2023-02-12T08:53:31;52.43;;;35.80;;
7501;SDS011;3792;47.740;7.606;2023-02-12T08:55:58;49.77;;;32.10;;
7501;SDS011;3792;47.740;7.606;2023-02-12T08:58:27;40.87;;;27.70;;
7501;SDS011;3792;47.740;7.606;2023-02-12T09:00:54;45.43;;;31.70;;
7501;SDS011;3792;47.740;7.606;2023-02-12T09:03:21;36.90;;;27.17;;
7501;SDS011;3792;47.740;7.606;2023-02-12T09:05:49;45.37;;;31.17;;
7501;SDS011;3792;47.740;7.606;2023-02-12T09:08:16;53.00;;;36.80;;
7501;SDS011;3792;47.740;7.606;2023-02-12T09:10:43;63.73;;;44.80;;
7501;SDS011;3792;47.740;7.606;2023-02-12T09:13:11;58.57;;;39.23;;
7501;SDS011;3792;47.740;7.606;2023-02-12T09:15:41;46.67;;;31.90;;
7501;SDS011;3792;47.740;7.606;2023-02-12T09:18:09;42.53;;;28.53;;
7501;SDS011;3792;47.740;7.606;2023-02-12T09:20:37;37.83;;;26.13;;
7501;SDS011;3792;47.740;7.606;2023-02-12T09:23:05;40.93;;;27.37;;
7501;SDS011;3792;47.740;7.606;2023-02-12T09:25:32;36.67;;;25.33;;
7501;SDS011;3792;47.740;7.606;2023-02-12T09:28:00;36.77;;;23.97;;
7501;SDS011;3792;47.740;7.606;2023-02-12T09:30:27;31.30;;;23.83;;
7501;SDS011;3792;47.740;7.606;2023-02-12T09:32:56;30.73;;;22.57;;
7501;SDS011;3792;47.740;7.606;2023-02-12T09:35:23;31.93;;;22.77;;
7501;SDS011;3792;47.740;7.606;2023-02-12T09:37:51;31.77;;;22.27;;
7501;SDS011;3792;47.740;7.606;2023-02-12T09:40:19;31.03;;;21.50;;
7501;SDS011;3792;47.740;7.606;2023-02-12T09:42:56;30.43;;;20.80;;
7501;SDS011;3792;47.740;7.606;2023-02-12T09:45:33;38.57;;;27.40;;
7501;SDS011;3792;47.740;7.606;2023-02-12T09:48:07;33.70;;;23.23;;
7501;SDS011;3792;47.740;7.606;2023-02-12T09:50:45;27.33;;;19.63;;
7501;SDS011;3792;47.740;7.606;2023-02-12T09:53:17;40.57;;;30.67;;
7501;SDS011;3792;47.740;7.606;2023-02-12T09:55:48;45.57;;;32.10;;
7501;SDS011;3792;47.740;7.606;2023-02-12T09:58:16;42.57;;;32.10;;
7501;SDS011;3792;47.740;7.606;2023-02-12T10:00:48;38.30;;;26.60;;
7501;SDS011;3792;47.740;7.606;2023-02-12T10:03:17;38.43;;;27.67;;
7501;SDS011;3792;47.740;7.606;2023-02-12T10:05:46;32.03;;;22.70;;
7501;SDS011;3792;47.740;7.606;2023-02-12T10:08:23;28.40;;;20.97;;
7501;SDS011;3792;47.740;7.606;2023-02-12T10:11:15;27.30;;;19.47;;
7501;SDS011;3792;47.740;7.606;2023-02-12T10:13:59;24.53;;;18.53;;
7501;SDS011;3792;47.740;7.606;2023-02-12T10:16:36;22.87;;;17.60;;
7501;SDS011;3792;47.740;7.606;2023-02-12T10:19:17;27.93;;;18.70;;
7501;SDS011;3792;47.740;7.606;2023-02-12T10:21:56;22.10;;;17.13;;
7501;SDS011;3792;47.740;7.606;2023-02-12T10:24:41;25.63;;;18.87;;
7501;SDS011;3792;47.740;7.606;2023-02-12T10:27:33;23.77;;;17.83;;
7501;SDS011;3792;47.740;7.606;2023-02-12T10:30:03;24.30;;;12.77;;
7501;SDS011;3792;47.740;7.606;2023-02-12T10:32:42;19.73;;;13.07;;
7501;SDS011;3792;47.740;7.606;2023-02-12T10:35:13;18.07;;;12.37;;
7501;SDS011;3792;47.740;7.606;2023-02-12T10:37:42;18.00;;;13.60;;
7501;SDS011;3792;47.740;7.606;2023-02-12T10:40:15;23.13;;;13.93;;
7501;SDS011;3792;47.740;7.606;2023-02-12T10:42:46;20.80;;;15.70;;
7501;SDS011;3792;47.740;7.606;2023-02-12T10:45:15;16.20;;;13.50;;
7501;SDS011;3792;47.740;7.606;2023-02-12T10:47:44;20.27;;;14.53;;
7501;SDS011;3792;47.740;7.606;2023-02-12T10:50:15;18.20;;;13.90;;
7501;SDS011;3792;47.740;7.606;2023-02-12T10:52:48;20.83;;;15.23;;
7501;SDS011;3792;47.740;7.606;2023-02-12T10:55:22;22.43;;;14.83;;
7501;SDS011;3792;47.740;7.606;2023-02-12T10:57:51;21.43;;;15.60;;
7501;SDS011;3792;47.740;7.606;2023-02-12T11:00:23;15.90;;;11.67;;
7501;SDS011;3792;47.740;7.606;2023-02-12T11:03:00;13.87;;;11.13;;
7501;SDS011;3792;47.740;7.606;2023-02-12T11:05:31;29.73;;;19.20;;
7501;SDS011;3792;47.740;7.606;2023-02-12T11:08:00;22.10;;;14.57;;
7501;SDS011;3792;47.740;7.606;2023-02-12T11:10:28;14.17;;;11.90;;
7501;SDS011;3792;47.740;7.606;2023-02-12T11:12:57;23.00;;;16.77;;
7501;SDS011;3792;47.740;7.606;2023-02-12T11:15:29;17.37;;;11.83;;
7501;SDS011;3792;47.740;7.606;2023-02-12T11:18:03;13.83;;;11.77;;
7501;SDS011;3792;47.740;7.606;2023-02-12T11:20:36;23.63;;;16.57;;
7501;SDS011;3792;47.740;7.606;2023-02-12T11:23:05;16.13;;;13.23;;
7501;SDS011;3792;47.740;7.606;2023-02-12T11:25:54;13.83;;;11.67;;
7501;SDS011;3792;47.740;7.606;2023-02-12T11:28:24;11.97;;;10.37;;
7501;SDS011;3792;47.740;7.606;2023-02-12T11:30:53;13.23;;;11.03;;
7501;SDS011;3792;47.740;7.606;2023-02-12T11:33:29;15.47;;;12.00;;
7501;SDS011;3792;47.740;7.606;2023-02-12T11:36:03;17.53;;;12.97;;
7501;SDS011;3792;47.740;7.606;2023-02-12T11:38:38;14.20;;;11.63;;
7501;SDS011;3792;47.740;7.606;2023-02-12T11:41:18;12.80;;;10.20;;
7501;SDS011;3792;47.740;7.606;2023-02-12T11:43:49;19.97;;;15.10;;
7501;SDS011;3792;47.740;7.606;2023-02-12T11:46:20;19.27;;;15.20;;
7501;SDS011;3792;47.740;7.606;2023-02-12T11:48:49;16.43;;;13.07;;
7501;SDS011;3792;47.740;7.606;2023-02-12T11:51:19;13.80;;;9.03;;
7501;SDS011;3792;47.740;7.606;2023-02-12T11:53:51;11.83;;;8.97;;
7501;SDS011;3792;47.740;7.606;2023-02-12T11:56:21;10.80;;;8.97;;
7501;SDS011;3792;47.740;7.606;2023-02-12T11:58:48;9.63;;;7.97;;
7501;SDS011;3792;47.740;7.606;2023-02-12T12:01:17;8.30;;;7.40;;
7501;SDS011;3792;47.740;7.606;2023-02-12T12:03:55;6.77;;;6.07;;
7501;SDS011;3792;47.740;7.606;2023-02-12T12:06:32;8.53;;;7.37;;
7501;SDS011;3792;47.740;7.606;2023-02-12T12:09:04;8.40;;;6.97;;
7501;SDS011;3792;47.740;7.606;2023-02-12T12:11:45;7.50;;;6.67;;
7501;SDS011;3792;47.740;7.606;2023-02-12T12:14:23;13.03;;;8.60;;
7501;SDS011;3792;47.740;7.606;2023-02-12T12:16:55;7.50;;;6.33;;
7501;SDS011;3792;47.740;7.606;2023-02-12T12:19:47;7.93;;;6.53;;
7501;SDS011;3792;47.740;7.606;2023-02-12T12:22:38;9.23;;;5.83;;
7501;SDS011;3792;47.740;7.606;2023-02-12T12:25:14;7.73;;;5.90;;
7501;SDS011;3792;47.740;7.606;2023-02-12T12:27:51;10.90;;;7.23;;
7501;SDS011;3792;47.740;7.606;2023-02-12T12:30:32;12.83;;;8.60;;
7501;SDS011;3792;47.740;7.606;2023-02-12T12:33:13;17.70;;;8.63;;
7501;SDS011;3792;47.740;7.606;2023-02-12T12:35:46;14.53;;;9.77;;
7501;SDS011;3792;47.740;7.606;2023-02-12T12:38:28;12.50;;;8.10;;
7501;SDS011;3792;47.740;7.606;2023-02-12T12:41:07;11.17;;;8.03;;
7501;SDS011;3792;47.740;7.606;2023-02-12T12:43:49;12.07;;;10.40;;
7501;SDS011;3792;47.740;7.606;2023-02-12T12:46:39;9.20;;;8.30;;
7501;SDS011;3792;47.740;7.606;2023-02-12T12:49:26;10.70;;;9.67;;
7501;SDS011;3792;47.740;7.606;2023-02-12T12:52:17;13.40;;;11.13;;
7501;SDS011;3792;47.740;7.606;2023-02-12T12:55:02;8.80;;;6.83;;
7501;SDS011;3792;47.740;7.606;2023-02-12T12:57:56;11.77;;;7.20;;
7501;SDS011;3792;47.740;7.606;2023-02-12T13:03:35;10.17;;;8.03;;
7501;SDS011;3792;47.740;7.606;2023-02-12T13:06:26;12.37;;;9.30;;
7501;SDS011;3792;47.740;7.606;2023-02-12T13:09:11;8.27;;;7.47;;
7501;SDS011;3792;47.740;7.606;2023-02-12T13:12:00;11.07;;;8.33;;
7501;SDS011;3792;47.740;7.606;2023-02-12T13:14:46;11.73;;;8.73;;
7501;SDS011;3792;47.740;7.606;2023-02-12T13:17:21;10.90;;;8.60;;
7501;SDS011;3792;47.740;7.606;2023-02-12T13:19:53;10.67;;;8.33;;
7501;SDS011;3792;47.740;7.606;2023-02-12T13:22:29;10.30;;;8.97;;
7501;SDS011;3792;47.740;7.606;2023-02-12T13:25:04;12.87;;;9.67;;
7501;SDS011;3792;47.740;7.606;2023-02-12T13:27:43;12.23;;;10.10;;
7501;SDS011;3792;47.740;7.606;2023-02-12T13:30:18;10.27;;;8.73;;
7501;SDS011;3792;47.740;7.606;2023-02-12T13:32:50;9.60;;;7.80;;
7501;SDS011;3792;47.740;7.606;2023-02-12T13:35:26;12.27;;;9.20;;
7501;SDS011;3792;47.740;7.606;2023-02-12T13:37:56;12.20;;;8.80;;
7501;SDS011;3792;47.740;7.606;2023-02-12T13:40:27;11.63;;;10.33;;
7501;SDS011;3792;47.740;7.606;2023-02-12T13:42:58;10.57;;;8.70;;
7501;SDS011;3792;47.740;7.606;2023-02-12T13:45:39;10.73;;;9.63;;
7501;SDS011;3792;47.740;7.606;2023-02-12T13:48:19;9.47;;;8.30;;
7501;SDS011;3792;47.740;7.606;2023-02-12T13:50:58;11.67;;;8.97;;
7501;SDS011;3792;47.740;7.606;2023-02-12T13:53:33;13.30;;;9.80;;
7501;SDS011;3792;47.740;7.606;2023-02-12T13:56:24;17.10;;;9.57;;
7501;SDS011;3792;47.740;7.606;2023-02-12T13:59:00;11.40;;;8.33;;
7501;SDS011;3792;47.740;7.606;2023-02-12T14:01:35;12.60;;;9.17;;
7501;SDS011;3792;47.740;7.606;2023-02-12T14:04:18;13.73;;;9.83;;
7501;SDS011;3792;47.740;7.606;2023-02-12T14:06:56;14.43;;;10.33;;
7501;SDS011;3792;47.740;7.606;2023-02-12T14:09:30;12.00;;;8.87;;
7501;SDS011;3792;47.740;7.606;2023-02-12T14:12:01;9.00;;;8.10;;
7501;SDS011;3792;47.740;7.606;2023-02-12T14:14:34;13.33;;;11.40;;
7501;SDS011;3792;47.740;7.606;2023-02-12T14:20:20;10.00;;;9.00;;
7501;SDS011;3792;47.740;7.606;2023-02-12T14:22:56;8.83;;;7.93;;
7501;SDS011;3792;47.740;7.606;2023-02-12T14:25:29;72.13;;;39.77;;
7501;SDS011;3792;47.740;7.606;2023-02-12T14:28:06;41.77;;;27.27;;
7501;SDS011;3792;47.740;7.606;2023-02-12T14:37:09;11.33;;;9.80;;
7501;SDS011;3792;47.740;7.606;2023-02-12T14:39:40;17.90;;;14.23;;
7501;SDS011;3792;47.740;7.606;2023-02-12T14:48:00;10.37;;;9.23;;
7501;SDS011;3792;47.740;7.606;2023-02-12T14:50:29;12.13;;;9.47;;
7501;SDS011;3792;47.740;7.606;2023-02-12T14:53:05;11.83;;;10.23;;
7501;SDS011;3792;47.740;7.606;2023-02-12T14:55:41;11.50;;;9.47;;
7501;SDS011;3792;47.740;7.606;2023-02-12T14:58:15;14.70;;;11.50;;
7501;SDS011;3792;47.740;7.606;2023-02-12T15:00:44;12.80;;;10.77;;
7501;SDS011;3792;47.740;7.606;2023-02-12T15:03:24;13.97;;;11.50;;
7501;SDS011;3792;47.740;7.606;2023-02-12T15:05:57;12.13;;;10.70;;
7501;SDS011;3792;47.740;7.606;2023-02-12T15:08:31;17.60;;;14.07;;
7501;SDS011;3792;47.740;7.606;2023-02-12T15:11:07;14.30;;;11.33;;
7501;SDS011;3792;47.740;7.606;2023-02-12T15:13:46;12.33;;;10.37;;
7501;SDS011;3792;47.740;7.606;2023-02-12T15:16:16;12.53;;;10.10;;
7501;SDS011;3792;47.740;7.606;2023-02-12T15:18:54;11.80;;;10.60;;
7501;SDS011;3792;47.740;7.606;2023-02-12T15:21:26;13.30;;;9.97;;
7501;SDS011;3792;47.740;7.606;2023-02-12T15:24:02;39.90;;;29.50;;
7501;SDS011;3792;47.740;7.606;2023-02-12T15:26:32;13.97;;;12.40;;
7501;SDS011;3792;47.740;7.606;2023-02-12T15:29:02;25.00;;;20.33;;
7501;SDS011;3792;47.740;7.606;2023-02-12T15:31:30;26.03;;;20.23;;
7501;SDS011;3792;47.740;7.606;2023-02-12T15:34:00;59.87;;;44.17;;
7501;SDS011;3792;47.740;7.606;2023-02-12T15:36:30;41.47;;;31.83;;
7501;SDS011;3792;47.740;7.606;2023-02-12T15:38:59;24.20;;;18.20;;
7501;SDS011;3792;47.740;7.606;2023-02-12T15:41:33;20.87;;;15.57;;
7501;SDS011;3792;47.740;7.606;2023-02-12T15:44:03;16.23;;;13.07;;
7501;SDS011;3792;47.740;7.606;2023-02-12T15:46:55;14.17;;;12.43;;